Impacts METAR Board INFO
IDs:

KDTW - Detroit Metro/Wayne, MI, US

Updated at: 0854 UTC 22 Feb 2018
Potential Impact None Slight Moderate High
Time21/20Z 21/21Z 21/22Z 21/23Z 22/00Z 22/01Z 22/02Z 22/03Z 22/04Z 22/05Z 22/06Z 22/07Z 22/08Z
VIS10 10 10 10 10 10 10 10 10 10 10
CIG25 30 30 28 25 160 160 160 160 150 150
CoverOVCOVCOVCOVCOVCOVCOVCOVCOVCOVCOVC
FltCatMVFRMVFRMVFRMVFRMVFRVFRVFRVFRVFRVFRVFR
WX----------------------
WDir340350109090805060404050
WSpd8 6 9 7 6 6 5 7 8 8 10
WGst-- -- -- -- -- -- -- -- -- -- --
Raw hourly METARs
KDTW 211953Z 34008KT 10SM OVC025 05/00 A3050 RMK AO2 SLP332 T00500000 $
KDTW 212053Z 35006KT 10SM OVC030 05/00 A3053 RMK AO2 SLP341 T00500000 53019 $
KDTW 212153Z 01009KT 10SM BKN030 OVC130 06/00 A3053 RMK AO2 SLP343 T00560000 $
KDTW 212300Z 09007KT 10SM FEW012 OVC028 03/00 A3056 RMK AO2 T00280000 $
KDTW 212353Z 09006KT 10SM FEW012 BKN025 OVC060 02/M01 A3059 RMK AO2 SLP365 T00221011 10061 20022 53021 $
KDTW 220042Z 08006KT 10SM SCT025 OVC160 01/M02 A3061 RMK AO2 T00111017 $


KDTW 220353Z 05005KT 10SM SCT020 OVC160 00/M03 A3064 RMK AO2 SLP383 T00001028 $
KDTW 220453Z 06007KT 10SM OVC160 00/M03 A3063 RMK AO2 SLP380 T00001028 401390000 $
KDTW 220553Z 04008KT 10SM FEW025 OVC160 00/M03 A3064 RMK AO2 SLP382 T00001033 10022 20000 51002 $
KDTW 220653Z 04008KT 10SM FEW025 OVC150 M01/M03 A3062 RMK AO2 SLP376 T10061033 $
KDTW 220753Z 05010KT 10SM FEW025 OVC150 M01/M03 A3061 RMK AO2 SLP373 T10061033 $